createdAt,value
2022-09-20T00:00:43.697Z,0.00
2022-09-20T00:01:43.713Z,0.00
2022-09-20T00:02:43.614Z,0.00
2022-09-20T00:03:43.596Z,0.00
2022-09-20T00:04:43.637Z,0.00
2022-09-20T00:05:43.582Z,0.00
2022-09-20T00:06:43.598Z,0.00
2022-09-20T00:07:43.558Z,0.00
2022-09-20T00:08:43.543Z,0.00
2022-09-20T00:09:43.557Z,0.00
2022-09-20T00:10:43.538Z,0.00
2022-09-20T00:11:43.551Z,0.00
2022-09-20T00:12:43.513Z,0.00
2022-09-20T00:13:43.498Z,0.00
2022-09-20T00:14:43.508Z,0.00
2022-09-20T00:15:43.491Z,0.00
2022-09-20T00:16:43.547Z,0.00
2022-09-20T00:17:43.463Z,0.00
2022-09-20T00:18:43.463Z,0.00
2022-09-20T00:19:43.455Z,0.00
2022-09-20T00:20:43.440Z,0.00
2022-09-20T00:21:43.457Z,0.00
2022-09-20T00:22:43.439Z,0.00
2022-09-20T00:23:43.431Z,0.00
2022-09-20T00:24:46.865Z,0.00
2022-09-20T00:25:43.397Z,0.00
2022-09-20T00:26:43.402Z,0.00
2022-09-20T00:27:43.373Z,0.00
2022-09-20T00:28:43.373Z,0.00
2022-09-20T00:29:43.363Z,0.00
2022-09-20T00:30:43.342Z,0.00
2022-09-20T00:31:43.437Z,0.00
2022-09-20T00:32:43.340Z,0.00
2022-09-20T00:33:43.313Z,0.00
2022-09-20T00:34:43.299Z,0.00
2022-09-20T00:35:43.291Z,0.00
2022-09-20T00:36:43.301Z,0.00
2022-09-20T00:37:43.268Z,0.00
2022-09-20T00:38:43.258Z,0.00
2022-09-20T00:39:43.248Z,0.00
2022-09-20T00:40:43.267Z,0.00
2022-09-20T00:41:43.254Z,0.00
2022-09-20T00:42:43.219Z,0.00
2022-09-20T00:43:43.208Z,0.00
2022-09-20T00:44:43.199Z,0.00
2022-09-20T00:45:43.234Z,0.00
2022-09-20T00:46:43.200Z,0.00
2022-09-20T00:47:43.168Z,0.00
2022-09-20T00:48:43.149Z,0.00
2022-09-20T00:49:43.145Z,0.00
2022-09-20T00:50:43.133Z,0.00
2022-09-20T00:51:43.151Z,0.00
2022-09-20T00:52:43.107Z,0.00
2022-09-20T00:53:43.106Z,0.00
2022-09-20T00:54:43.094Z,0.00
2022-09-20T00:55:43.093Z,0.00
2022-09-20T00:56:43.105Z,0.00
2022-09-20T00:57:43.075Z,0.00
2022-09-20T00:58:43.061Z,0.00
2022-09-20T00:59:43.051Z,0.00
2022-09-20T01:00:43.095Z,0.00
2022-09-20T01:01:43.194Z,0.00
2022-09-20T01:02:43.100Z,0.00
2022-09-20T01:03:43.004Z,0.00
2022-09-20T01:04:43.994Z,0.00
2022-09-20T01:05:42.996Z,0.00
2022-09-20T01:06:43.000Z,0.00
2022-09-20T01:07:42.975Z,0.00
2022-09-20T01:08:42.959Z,0.00
2022-09-20T01:09:42.950Z,0.00
2022-09-20T01:10:42.939Z,0.00
2022-09-20T01:11:42.951Z,0.00
2022-09-20T01:12:42.929Z,0.00
2022-09-20T01:13:42.921Z,0.00
2022-09-20T01:14:42.899Z,0.00
2022-09-20T01:15:42.891Z,0.00
2022-09-20T01:16:42.941Z,0.00
2022-09-20T01:17:42.869Z,0.00
2022-09-20T01:18:42.852Z,0.00
2022-09-20T01:19:42.857Z,0.00
2022-09-20T01:20:42.840Z,0.00
2022-09-20T01:21:42.848Z,0.00
2022-09-20T01:22:42.827Z,0.00
2022-09-20T01:23:42.813Z,0.00
2022-09-20T01:24:42.809Z,0.00
2022-09-20T01:25:42.791Z,0.00
2022-09-20T01:26:42.806Z,0.00
2022-09-20T01:27:42.773Z,0.00
2022-09-20T01:28:42.753Z,0.00
2022-09-20T01:29:42.757Z,0.00
2022-09-20T01:30:42.743Z,0.00
2022-09-20T01:31:42.846Z,0.00
2022-09-20T01:32:42.726Z,0.00
2022-09-20T01:33:42.712Z,0.00
2022-09-20T01:34:42.707Z,0.00
2022-09-20T01:35:42.700Z,0.00
2022-09-20T01:36:42.706Z,0.00
2022-09-20T01:37:42.679Z,0.00
2022-09-20T01:38:42.665Z,0.00
2022-09-20T01:39:42.661Z,0.00
2022-09-20T01:40:42.671Z,0.00
2022-09-20T01:41:42.655Z,0.00
2022-09-20T01:42:42.628Z,0.00
2022-09-20T01:43:42.619Z,0.00
2022-09-20T01:44:42.600Z,0.00
2022-09-20T01:45:42.614Z,0.00
2022-09-20T01:46:42.607Z,0.00
2022-09-20T01:47:42.578Z,0.00
2022-09-20T01:48:42.566Z,0.00
2022-09-20T01:49:42.552Z,0.00
2022-09-20T01:50:42.545Z,0.00
2022-09-20T01:51:42.556Z,0.00
2022-09-20T01:52:42.521Z,0.00
2022-09-20T01:53:42.534Z,0.00
2022-09-20T01:54:42.501Z,0.00
2022-09-20T01:55:42.512Z,0.00
2022-09-20T01:56:42.525Z,0.00
2022-09-20T01:57:42.481Z,0.00
2022-09-20T01:58:42.472Z,0.00
2022-09-20T01:59:42.473Z,0.00
2022-09-20T02:00:42.475Z,0.00
2022-09-20T02:01:42.460Z,0.00
2022-09-20T02:02:42.490Z,0.00
2022-09-20T02:03:42.424Z,0.00
2022-09-20T02:04:42.403Z,0.00
2022-09-20T02:05:42.403Z,0.00
2022-09-20T02:06:42.425Z,0.00
2022-09-20T02:07:42.384Z,0.00
2022-09-20T02:08:42.368Z,0.00
2022-09-20T02:09:42.373Z,0.00
2022-09-20T02:10:42.362Z,0.00
2022-09-20T02:11:42.360Z,0.00
2022-09-20T02:12:42.338Z,0.00
2022-09-20T02:13:42.327Z,0.00
2022-09-20T02:14:42.326Z,0.00
2022-09-20T02:15:42.308Z,0.00
2022-09-20T02:16:42.431Z,0.00
2022-09-20T02:17:42.278Z,0.00
2022-09-20T02:18:42.294Z,0.00
2022-09-20T02:19:42.259Z,0.00
2022-09-20T02:21:14.176Z,0.00
2022-09-20T02:21:42.243Z,0.00
2022-09-20T02:22:42.231Z,0.00
2022-09-20T02:23:42.221Z,0.00
2022-09-20T02:24:42.197Z,0.00
2022-09-20T02:25:42.200Z,0.00
2022-09-20T02:26:42.208Z,0.00
2022-09-20T02:27:42.180Z,0.00
2022-09-20T02:28:42.169Z,0.00
2022-09-20T02:29:42.155Z,0.00
2022-09-20T02:30:42.143Z,0.00
2022-09-20T02:31:42.253Z,0.00
2022-09-20T02:32:42.120Z,0.00
2022-09-20T02:33:43.118Z,0.00
2022-09-20T02:34:42.113Z,0.00
2022-09-20T02:35:42.103Z,0.00
2022-09-20T02:36:42.115Z,0.00
2022-09-20T02:37:42.088Z,0.00
2022-09-20T02:38:42.073Z,0.00
2022-09-20T02:39:42.061Z,0.00
2022-09-20T02:40:42.155Z,0.00
2022-09-20T02:41:42.063Z,0.00
2022-09-20T02:42:42.032Z,0.00
2022-09-20T02:43:42.038Z,0.00
2022-09-20T02:44:42.016Z,0.00
2022-09-20T02:45:42.052Z,0.00
2022-09-20T02:46:42.010Z,0.00
2022-09-20T02:47:41.986Z,0.00
2022-09-20T02:48:41.970Z,0.00
2022-09-20T02:49:41.960Z,0.00
2022-09-20T02:50:41.954Z,0.00
2022-09-20T02:51:41.971Z,0.00
2022-09-20T02:52:41.939Z,0.00
2022-09-20T02:53:41.923Z,0.00
2022-09-20T02:54:41.919Z,0.00
2022-09-20T02:55:41.893Z,0.00
2022-09-20T02:56:41.916Z,0.00
2022-09-20T02:57:41.888Z,0.00
2022-09-20T02:58:41.874Z,0.00
2022-09-20T02:59:41.861Z,0.00
2022-09-20T03:00:41.852Z,0.00
2022-09-20T03:01:41.940Z,0.00
2022-09-20T03:02:41.903Z,0.00
2022-09-20T03:03:41.821Z,0.00
2022-09-20T03:04:41.815Z,0.00
2022-09-20T03:05:41.807Z,0.00
2022-09-20T03:06:41.828Z,0.00
2022-09-20T03:07:41.786Z,0.00
2022-09-20T03:08:41.801Z,0.00
2022-09-20T03:09:41.767Z,0.00
2022-09-20T03:10:41.787Z,0.00
2022-09-20T03:11:41.748Z,0.00
2022-09-20T03:12:41.732Z,0.00
2022-09-20T03:13:41.727Z,0.00
2022-09-20T03:14:41.720Z,0.00
2022-09-20T03:15:41.722Z,0.00
2022-09-20T03:16:41.780Z,0.00
2022-09-20T03:17:42.705Z,0.00
2022-09-20T03:18:41.675Z,0.00
2022-09-20T03:19:41.662Z,0.00
2022-09-20T03:20:41.698Z,0.00
2022-09-20T03:21:41.666Z,0.00
2022-09-20T03:22:41.634Z,0.00
2022-09-20T03:23:41.627Z,0.00
2022-09-20T03:24:41.617Z,0.00
2022-09-20T03:25:41.618Z,0.00
2022-09-20T03:26:41.616Z,0.00
2022-09-20T03:27:41.587Z,0.00
2022-09-20T03:28:41.580Z,0.00
2022-09-20T03:29:41.561Z,0.00
2022-09-20T03:30:41.614Z,0.00
2022-09-20T03:31:41.589Z,0.00
2022-09-20T03:32:41.541Z,0.00
2022-09-20T03:33:41.530Z,0.00
2022-09-20T03:34:41.521Z,0.00
2022-09-20T03:35:41.617Z,0.00
2022-09-20T03:36:41.515Z,0.00
2022-09-20T03:37:41.487Z,0.00
2022-09-20T03:38:41.474Z,0.00
2022-09-20T03:39:41.468Z,0.00
2022-09-20T03:40:46.243Z,0.00
2022-09-20T03:41:43.484Z,0.00
2022-09-20T03:42:41.442Z,0.00
2022-09-20T03:43:41.420Z,0.00
2022-09-20T03:44:41.415Z,0.00
2022-09-20T03:45:41.469Z,0.00
2022-09-20T03:46:41.392Z,0.00
2022-09-20T03:47:41.386Z,0.00
2022-09-20T03:48:41.381Z,0.00
2022-09-20T03:49:41.370Z,0.00
2022-09-20T03:50:41.361Z,0.00
2022-09-20T03:51:41.364Z,0.00
2022-09-20T03:52:41.338Z,0.00
2022-09-20T03:53:41.328Z,0.00
2022-09-20T03:54:41.324Z,0.00
2022-09-20T03:55:41.300Z,0.00
2022-09-20T03:56:41.317Z,0.00
2022-09-20T03:57:41.290Z,0.00
2022-09-20T03:58:41.281Z,0.00
2022-09-20T03:59:41.269Z,0.00
2022-09-20T04:00:41.326Z,0.00
2022-09-20T04:01:41.272Z,0.00
2022-09-20T04:02:41.330Z,0.00
2022-09-20T04:03:41.228Z,0.00
2022-09-20T04:04:41.220Z,0.00
2022-09-20T04:05:41.209Z,0.00
2022-09-20T04:06:41.225Z,0.00
2022-09-20T04:07:41.188Z,0.00
2022-09-20T04:08:41.181Z,0.00
2022-09-20T04:09:41.171Z,0.00
2022-09-20T04:10:41.184Z,0.00
2022-09-20T04:11:41.153Z,0.00
2022-09-20T04:12:41.130Z,0.00
2022-09-20T04:13:41.134Z,0.00
2022-09-20T04:14:41.129Z,0.00
2022-09-20T04:15:41.108Z,0.00
2022-09-20T04:16:41.181Z,0.00
2022-09-20T04:17:41.087Z,0.00
2022-09-20T04:18:41.091Z,0.00
2022-09-20T04:19:41.074Z,0.00
2022-09-20T04:20:41.067Z,0.00
2022-09-20T04:21:41.076Z,0.00
2022-09-20T04:22:41.038Z,0.00
2022-09-20T04:23:41.028Z,0.00
2022-09-20T04:24:41.026Z,0.00
2022-09-20T04:25:44.049Z,0.00
2022-09-20T04:26:42.023Z,0.00
2022-09-20T04:27:40.998Z,0.00
2022-09-20T04:28:40.997Z,0.00
2022-09-20T04:29:40.971Z,0.00
2022-09-20T04:30:40.979Z,0.00
2022-09-20T04:31:41.026Z,0.00
2022-09-20T04:32:40.948Z,0.00
2022-09-20T04:33:40.930Z,0.00
2022-09-20T04:34:40.930Z,4.00
2022-09-20T04:35:40.907Z,0.00
2022-09-20T04:36:40.934Z,4.00
2022-09-20T04:37:40.892Z,4.00
2022-09-20T04:38:40.890Z,4.00
2022-09-20T04:39:40.863Z,4.00
2022-09-20T04:40:40.930Z,8.00
2022-09-20T04:41:40.877Z,8.00
2022-09-20T04:42:40.845Z,12.00
2022-09-20T04:43:40.827Z,8.00
2022-09-20T04:44:40.837Z,12.00
2022-09-20T04:45:40.856Z,16.00
2022-09-20T04:46:40.826Z,20.00
2022-09-20T04:47:40.788Z,20.00
2022-09-20T04:48:40.789Z,28.00
2022-09-20T04:49:40.777Z,32.00
2022-09-20T04:50:40.781Z,36.00
2022-09-20T04:51:40.794Z,40.00
2022-09-20T04:52:40.748Z,48.00
2022-09-20T04:53:40.743Z,56.00
2022-09-20T04:54:40.736Z,64.00
2022-09-20T04:55:40.731Z,76.00
2022-09-20T04:56:40.709Z,84.00
2022-09-20T04:57:40.700Z,96.00
2022-09-20T04:58:40.683Z,112.00
2022-09-20T04:59:40.668Z,124.00
2022-09-20T05:00:40.720Z,140.00
2022-09-20T05:01:40.754Z,156.00
2022-09-20T05:02:40.713Z,172.00
2022-09-20T05:03:40.642Z,188.00
2022-09-20T05:04:40.650Z,204.00
2022-09-20T05:05:40.643Z,224.00
2022-09-20T05:06:40.611Z,240.00
2022-09-20T05:07:40.602Z,260.00
2022-09-20T05:08:40.596Z,276.00
2022-09-20T05:09:40.585Z,296.00
2022-09-20T05:10:40.628Z,320.00
2022-09-20T05:11:40.567Z,340.00
2022-09-20T05:12:40.554Z,368.00
2022-09-20T05:13:40.543Z,388.00
2022-09-20T05:14:40.541Z,412.00
2022-09-20T05:15:40.534Z,428.00
2022-09-20T05:16:43.356Z,432.00
2022-09-20T05:17:40.504Z,440.00
2022-09-20T05:18:40.503Z,456.00
2022-09-20T05:19:40.487Z,472.00
2022-09-20T05:20:40.501Z,488.00
2022-09-20T05:21:40.472Z,500.00
2022-09-20T05:22:40.473Z,516.00
2022-09-20T05:23:40.451Z,520.00
2022-09-20T05:24:40.451Z,524.00
2022-09-20T05:25:40.459Z,536.00
2022-09-20T05:26:40.415Z,560.00
2022-09-20T05:27:40.410Z,592.00
2022-09-20T05:28:40.401Z,628.00
2022-09-20T05:29:40.392Z,664.00
2022-09-20T05:30:40.401Z,704.00
2022-09-20T05:31:40.496Z,736.00
2022-09-20T05:32:40.370Z,772.00
2022-09-20T05:33:40.361Z,776.00
2022-09-20T05:34:40.339Z,760.00
2022-09-20T05:35:40.354Z,744.00
2022-09-20T05:36:40.325Z,744.00
2022-09-20T05:37:40.312Z,768.00
2022-09-20T05:38:40.306Z,788.00
2022-09-20T05:39:40.293Z,812.00
2022-09-20T05:40:40.308Z,804.00
2022-09-20T05:41:40.281Z,776.00
2022-09-20T05:42:40.260Z,760.00
2022-09-20T05:43:40.256Z,752.00
2022-09-20T05:44:40.247Z,796.00
2022-09-20T05:45:40.314Z,868.00
2022-09-20T05:46:40.228Z,904.00
2022-09-20T05:47:40.217Z,956.00
2022-09-20T05:48:40.192Z,1060.00
2022-09-20T05:49:40.189Z,1168.00
2022-09-20T05:50:41.217Z,1264.00
2022-09-20T05:51:40.178Z,1272.00
2022-09-20T05:52:40.159Z,1296.00
2022-09-20T05:53:41.184Z,1316.00
2022-09-20T05:54:40.162Z,1320.00
2022-09-20T05:55:40.157Z,1384.00
2022-09-20T05:56:40.131Z,1424.00
2022-09-20T05:57:40.120Z,1416.00
2022-09-20T05:58:40.134Z,1480.00
2022-09-20T05:59:40.104Z,1544.00
2022-09-20T06:00:40.107Z,1624.00
2022-09-20T06:01:40.080Z,1736.00
2022-09-20T06:02:40.095Z,1868.00
2022-09-20T06:03:40.071Z,1976.00
2022-09-20T06:04:40.053Z,2100.00
2022-09-20T06:05:40.064Z,2172.00
2022-09-20T06:06:40.035Z,2216.00
2022-09-20T06:07:40.026Z,2212.00
2022-09-20T06:08:40.622Z,2216.00
2022-09-20T06:09:40.003Z,2212.00
2022-09-20T06:10:40.005Z,2240.00
2022-09-20T06:11:40.057Z,2272.00
2022-09-20T06:12:39.983Z,2312.00
2022-09-20T06:13:39.963Z,2324.00
2022-09-20T06:14:39.951Z,2360.00
2022-09-20T06:15:39.961Z,2428.00
2022-09-20T06:16:40.008Z,2468.00
2022-09-20T06:17:39.922Z,2480.00
2022-09-20T06:18:39.921Z,2484.00
2022-09-20T06:19:39.908Z,2480.00
2022-09-20T06:20:39.913Z,2480.00
2022-09-20T06:21:39.884Z,2484.00
2022-09-20T06:22:39.871Z,2436.00
2022-09-20T06:23:39.873Z,2388.00
2022-09-20T06:24:39.862Z,2388.00
2022-09-20T06:25:39.882Z,2400.00
2022-09-20T06:26:39.842Z,2556.00
2022-09-20T06:27:39.836Z,2456.00
2022-09-20T06:28:39.823Z,2368.00
2022-09-20T06:29:39.816Z,2340.00
2022-09-20T06:30:39.914Z,2336.00
2022-09-20T06:31:39.804Z,2336.00
2022-09-20T06:32:39.780Z,2420.00
2022-09-20T06:33:39.781Z,2456.00
2022-09-20T06:34:39.756Z,2620.00
2022-09-20T06:35:39.772Z,2756.00
2022-09-20T06:36:39.765Z,2672.00
2022-09-20T06:37:39.793Z,2708.00
2022-09-20T06:38:39.739Z,2840.00
2022-09-20T06:39:39.722Z,3128.00
2022-09-20T06:40:39.759Z,3304.00
2022-09-20T06:41:40.703Z,3772.00
2022-09-20T06:42:39.715Z,3668.00
2022-09-20T06:43:39.683Z,3692.00
2022-09-20T06:44:39.665Z,3968.00
2022-09-20T06:45:39.697Z,4324.00
2022-09-20T06:46:39.645Z,4576.00
2022-09-20T06:47:39.631Z,4832.00
2022-09-20T06:48:39.649Z,4880.00
2022-09-20T06:49:39.619Z,4672.00
2022-09-20T06:50:39.622Z,4792.00
2022-09-20T06:51:39.600Z,4828.00
2022-09-20T06:52:39.588Z,4764.00
2022-09-20T06:53:39.586Z,4792.00
2022-09-20T06:54:39.572Z,4720.00
2022-09-20T06:55:39.577Z,4876.00
2022-09-20T06:56:39.552Z,5200.00
2022-09-20T06:57:39.547Z,4788.00
2022-09-20T06:58:39.539Z,4468.00
2022-09-20T06:59:39.525Z,4372.00
2022-09-20T07:00:39.530Z,4372.00
2022-09-20T07:01:39.632Z,4452.00
2022-09-20T07:02:39.565Z,4580.00
2022-09-20T07:03:39.488Z,4500.00
2022-09-20T07:04:39.484Z,4604.00
2022-09-20T07:05:39.477Z,4592.00
2022-09-20T07:06:40.468Z,4588.00
2022-09-20T07:07:39.449Z,4672.00
2022-09-20T07:08:39.443Z,4816.00
2022-09-20T07:09:39.422Z,4888.00
2022-09-20T07:10:39.435Z,4872.00
2022-09-20T07:11:39.410Z,4892.00
2022-09-20T07:12:39.401Z,4916.00
2022-09-20T07:13:39.412Z,4884.00
2022-09-20T07:14:39.382Z,4684.00
2022-09-20T07:15:39.394Z,4436.00
2022-09-20T07:16:39.395Z,4256.00
2022-09-20T07:17:39.388Z,4136.00
2022-09-20T07:18:39.343Z,4108.00
2022-09-20T07:19:39.330Z,4052.00
2022-09-20T07:20:39.377Z,4112.00
2022-09-20T07:21:39.310Z,4084.00
2022-09-20T07:22:39.300Z,3972.00
2022-09-20T07:23:39.288Z,3804.00
2022-09-20T07:24:39.274Z,3720.00
2022-09-20T07:25:39.294Z,3416.00
2022-09-20T07:26:39.262Z,3044.00
2022-09-20T07:27:39.246Z,2868.00
2022-09-20T07:28:39.244Z,2744.00
2022-09-20T07:29:39.220Z,2688.00
2022-09-20T07:30:39.236Z,2672.00
2022-09-20T07:31:39.252Z,2656.00
2022-09-20T07:32:39.190Z,2620.00
2022-09-20T07:33:39.177Z,2452.00
2022-09-20T07:34:39.176Z,2272.00
2022-09-20T07:35:39.167Z,2272.00
2022-09-20T07:36:39.174Z,2460.00
2022-09-20T07:37:39.181Z,2736.00
2022-09-20T07:38:39.145Z,3076.00
2022-09-20T07:39:39.124Z,3284.00
2022-09-20T07:40:39.175Z,3320.00
2022-09-20T07:41:39.119Z,3280.00
2022-09-20T07:42:39.103Z,3552.00
2022-09-20T07:43:39.097Z,3756.00
2022-09-20T07:44:39.074Z,3860.00
2022-09-20T07:45:39.101Z,4112.00
2022-09-20T07:46:39.070Z,4648.00
2022-09-20T07:47:39.048Z,4948.00
2022-09-20T07:48:39.037Z,5088.00
2022-09-20T07:49:39.007Z,5552.00
2022-09-20T07:50:39.007Z,5812.00
2022-09-20T07:51:39.025Z,6216.00
2022-09-20T07:52:39.013Z,6832.00
2022-09-20T07:53:38.978Z,7376.00
2022-09-20T07:54:38.974Z,8024.00
2022-09-20T07:55:38.964Z,8388.00
2022-09-20T07:56:38.967Z,7996.00
2022-09-20T07:57:39.613Z,8072.00
2022-09-20T07:58:38.950Z,8088.00
2022-09-20T07:59:38.931Z,8192.00
2022-09-20T08:00:38.917Z,8232.00
2022-09-20T08:01:38.926Z,8336.00
2022-09-20T08:02:38.915Z,8296.00
2022-09-20T08:03:38.885Z,7980.00
2022-09-20T08:04:38.951Z,7960.00
2022-09-20T08:05:38.870Z,7956.00
2022-09-20T08:06:38.873Z,7612.00
2022-09-20T08:07:39.644Z,7152.00
2022-09-20T08:08:38.830Z,6640.00
2022-09-20T08:09:38.828Z,6392.00
2022-09-20T08:10:38.811Z,6328.00
2022-09-20T08:11:38.822Z,6172.00
2022-09-20T08:14:40.767Z,6972.00
2022-09-20T08:15:38.757Z,6812.00
2022-09-20T08:16:38.804Z,6376.00
2022-09-20T08:17:38.747Z,5740.00
2022-09-20T08:18:38.731Z,5436.00
2022-09-20T08:19:38.717Z,4804.00
2022-09-20T08:20:38.711Z,4104.00
2022-09-20T08:21:38.719Z,3980.00
2022-09-20T08:22:38.686Z,3888.00
2022-09-20T08:23:38.677Z,3928.00
2022-09-20T08:24:38.668Z,4088.00
2022-09-20T08:25:56.035Z,4228.00
2022-09-20T08:26:38.663Z,4076.00
2022-09-20T08:27:38.634Z,4276.00
2022-09-20T08:28:38.628Z,4660.00
2022-09-20T08:29:38.620Z,4780.00
2022-09-20T08:30:38.614Z,4396.00
2022-09-20T08:31:38.677Z,4044.00
2022-09-20T08:32:38.590Z,4060.00
2022-09-20T08:33:38.613Z,4508.00
2022-09-20T08:34:38.569Z,5016.00
2022-09-20T08:35:38.634Z,4584.00
2022-09-20T08:36:39.571Z,4352.00
2022-09-20T08:37:38.547Z,4728.00
2022-09-20T08:39:57.657Z,4660.00
2022-09-20T08:40:39.576Z,4844.00
2022-09-20T08:41:38.516Z,5172.00
2022-09-20T08:42:43.728Z,5476.00
2022-09-20T08:43:45.547Z,6008.00
2022-09-20T08:44:45.331Z,6372.00
2022-09-20T08:45:39.497Z,6120.00
2022-09-20T08:46:38.525Z,5380.00
2022-09-20T08:47:38.456Z,5012.00
2022-09-20T08:48:38.426Z,5312.00
2022-09-20T08:49:38.421Z,5684.00
2022-09-20T08:50:38.416Z,5164.00
2022-09-20T08:51:38.429Z,4960.00
2022-09-20T08:52:38.391Z,5208.00
2022-09-20T08:53:38.374Z,5752.00
2022-09-20T08:54:38.382Z,6256.00
2022-09-20T08:55:38.358Z,6712.00
2022-09-20T08:56:38.377Z,7480.00
2022-09-20T08:57:38.343Z,8700.00
2022-09-20T08:58:38.329Z,10000.00
2022-09-20T08:59:38.312Z,9492.00
2022-09-20T09:00:38.316Z,9708.00
2022-09-20T09:01:38.321Z,11644.00
2022-09-20T09:02:38.329Z,10796.00
2022-09-20T09:03:38.286Z,10860.00
2022-09-20T09:04:38.273Z,11740.00
2022-09-20T09:05:38.261Z,12400.00
2022-09-20T09:06:38.275Z,11836.00
2022-09-20T09:07:38.254Z,11928.00
2022-09-20T09:08:38.281Z,9848.00
2022-09-20T09:09:39.226Z,9864.00
2022-09-20T09:10:45.374Z,9884.00
2022-09-20T09:11:45.727Z,10084.00
2022-09-20T09:12:39.193Z,10472.00
2022-09-20T09:13:38.183Z,11004.00
2022-09-20T09:14:38.176Z,11336.00
2022-09-20T09:15:38.162Z,10376.00
2022-09-20T09:16:38.232Z,10656.00
2022-09-20T09:17:38.149Z,9668.00
2022-09-20T09:18:38.132Z,8952.00
2022-09-20T09:19:38.119Z,8588.00
2022-09-20T09:20:38.120Z,8284.00
2022-09-20T09:21:38.121Z,7980.00
2022-09-20T09:22:38.098Z,7788.00
2022-09-20T09:23:38.082Z,8188.00
2022-09-20T09:24:38.073Z,8980.00
2022-09-20T09:25:38.078Z,8636.00
2022-09-20T09:26:38.066Z,8588.00
2022-09-20T09:27:38.040Z,8948.00
2022-09-20T09:28:38.032Z,9580.00
2022-09-20T09:29:38.020Z,10020.00
2022-09-20T09:30:38.010Z,10236.00
2022-09-20T09:31:38.065Z,10304.00
2022-09-20T09:32:37.991Z,10924.00
2022-09-20T09:33:37.987Z,13240.00
2022-09-20T09:34:37.974Z,14072.00
2022-09-20T09:35:37.959Z,14044.00
2022-09-20T09:36:37.977Z,12848.00
2022-09-20T09:37:37.947Z,12072.00
2022-09-20T09:38:37.936Z,11340.00
2022-09-20T09:39:37.921Z,10336.00
2022-09-20T09:40:37.988Z,8656.00
2022-09-20T09:41:37.927Z,8056.00
2022-09-20T09:42:37.889Z,6056.00
2022-09-20T09:43:37.881Z,5412.00
2022-09-20T09:44:37.871Z,5216.00
2022-09-20T09:45:37.926Z,5180.00
2022-09-20T09:46:37.865Z,5516.00
2022-09-20T09:47:37.837Z,6068.00
2022-09-20T09:48:39.706Z,6936.00
2022-09-20T09:49:38.826Z,7560.00
2022-09-20T09:50:37.815Z,7748.00
2022-09-20T09:51:37.826Z,7756.00
2022-09-20T09:52:37.789Z,7824.00
2022-09-20T09:53:37.809Z,8180.00
2022-09-20T09:54:37.796Z,8568.00
2022-09-20T09:55:37.765Z,8912.00
2022-09-20T09:56:37.773Z,9468.00
2022-09-20T09:57:37.750Z,10140.00
2022-09-20T09:58:37.740Z,10988.00
2022-09-20T09:59:37.717Z,11824.00
2022-09-20T10:00:37.715Z,12268.00
2022-09-20T10:01:37.814Z,12760.00
2022-09-20T10:02:37.713Z,12420.00
2022-09-20T10:03:37.683Z,12168.00
2022-09-20T10:04:37.681Z,12476.00
2022-09-20T10:05:37.671Z,13200.00
2022-09-20T10:06:37.675Z,11464.00
2022-09-20T10:07:37.649Z,10868.00
2022-09-20T10:08:37.642Z,12336.00
2022-09-20T10:09:37.622Z,9444.00
2022-09-20T10:10:37.617Z,9088.00
2022-09-20T10:11:37.623Z,8620.00
2022-09-20T10:12:37.597Z,8868.00
2022-09-20T10:13:40.660Z,9200.00
2022-09-20T10:14:38.642Z,9504.00
2022-09-20T10:15:37.569Z,10048.00
2022-09-20T10:16:37.635Z,10808.00
2022-09-20T10:17:37.556Z,11296.00
2022-09-20T10:18:37.539Z,11560.00
2022-09-20T10:19:37.535Z,11892.00
2022-09-20T10:20:37.524Z,11692.00
2022-09-20T10:21:37.525Z,11552.00
2022-09-20T10:22:37.503Z,11512.00
2022-09-20T10:24:02.163Z,11512.00
2022-09-20T10:24:39.478Z,11724.00
2022-09-20T10:25:37.467Z,12232.00
2022-09-20T10:26:37.650Z,12668.00
2022-09-20T10:27:37.454Z,12720.00
2022-09-20T10:28:37.443Z,12508.00
2022-09-20T10:29:37.443Z,11984.00
2022-09-20T10:30:37.500Z,11400.00
2022-09-20T10:31:37.428Z,11076.00
2022-09-20T10:32:37.403Z,10112.00
2022-09-20T10:33:37.410Z,9356.00
2022-09-20T10:34:37.383Z,9048.00
2022-09-20T10:35:37.381Z,8840.00
2022-09-20T10:36:37.387Z,8784.00
2022-09-20T10:37:37.363Z,8680.00
2022-09-20T10:38:37.349Z,8684.00
2022-09-20T10:39:37.331Z,9084.00
2022-09-20T10:40:37.355Z,9248.00
2022-09-20T10:41:37.335Z,9300.00
2022-09-20T10:42:37.311Z,9384.00
2022-09-20T10:43:37.298Z,9688.00
2022-09-20T10:44:37.286Z,9928.00
2022-09-20T10:46:08.275Z,9936.00
2022-09-20T10:46:39.328Z,10032.00
2022-09-20T10:47:37.277Z,10228.00
2022-09-20T10:48:37.253Z,10440.00
2022-09-20T10:49:37.252Z,11096.00
2022-09-20T10:50:37.229Z,11772.00
2022-09-20T10:51:37.239Z,12492.00
2022-09-20T10:52:38.206Z,13272.00
2022-09-20T10:53:37.203Z,13844.00
2022-09-20T10:54:37.195Z,14308.00
2022-09-20T10:55:37.174Z,15200.00
2022-09-20T10:56:37.192Z,15168.00
2022-09-20T10:57:37.169Z,15232.00
2022-09-20T10:58:37.147Z,14464.00
2022-09-20T10:59:37.146Z,11880.00
2022-09-20T11:00:37.145Z,10860.00
2022-09-20T11:01:37.231Z,9992.00
2022-09-20T11:02:37.174Z,9100.00
2022-09-20T11:03:37.100Z,8884.00
2022-09-20T11:04:37.093Z,8872.00
2022-09-20T11:05:37.085Z,8532.00
2022-09-20T11:06:37.096Z,8344.00
2022-09-20T11:07:37.072Z,8224.00
2022-09-20T11:08:37.061Z,8436.00
2022-09-20T11:09:37.090Z,8732.00
2022-09-20T11:10:37.038Z,9076.00
2022-09-20T11:11:37.048Z,9300.00
2022-09-20T11:12:37.013Z,9396.00
2022-09-20T11:13:37.003Z,9512.00
2022-09-20T11:14:36.996Z,9728.00
2022-09-20T11:15:36.985Z,10012.00
2022-09-20T11:16:37.039Z,10244.00
2022-09-20T11:17:36.963Z,10344.00
2022-09-20T11:18:36.947Z,10396.00
2022-09-20T11:19:36.952Z,10448.00
2022-09-20T11:20:36.936Z,10480.00
2022-09-20T11:21:36.942Z,10268.00
2022-09-20T11:22:36.911Z,10020.00
2022-09-20T11:23:36.905Z,9920.00
2022-09-20T11:24:36.891Z,9824.00
2022-09-20T11:25:36.885Z,9840.00
2022-09-20T11:26:36.888Z,10284.00
2022-09-20T11:27:36.863Z,11280.00
2022-09-20T11:28:36.858Z,12408.00
2022-09-20T11:29:36.884Z,10836.00
2022-09-20T11:30:36.827Z,11236.00
2022-09-20T11:31:36.902Z,10952.00
2022-09-20T11:32:36.813Z,11068.00
2022-09-20T11:33:41.184Z,10980.00
2022-09-20T11:34:36.792Z,11720.00
2022-09-20T11:35:36.789Z,14196.00
2022-09-20T11:36:36.820Z,12728.00
2022-09-20T11:37:36.768Z,12036.00
2022-09-20T11:38:36.756Z,12172.00
2022-09-20T11:39:36.746Z,12344.00
2022-09-20T11:40:36.829Z,12400.00
2022-09-20T11:41:36.741Z,12192.00
2022-09-20T11:42:36.716Z,11848.00
2022-09-20T11:43:36.698Z,11480.00
2022-09-20T11:44:36.689Z,10900.00
2022-09-20T11:45:36.703Z,10408.00
2022-09-20T11:46:36.694Z,9844.00
2022-09-20T11:47:53.857Z,9244.00
2022-09-20T11:48:38.655Z,8736.00
2022-09-20T11:49:36.640Z,8564.00
2022-09-20T11:50:36.635Z,8524.00
2022-09-20T11:51:36.636Z,8600.00
2022-09-20T11:52:36.621Z,8596.00
2022-09-20T11:53:37.068Z,8940.00
2022-09-20T11:54:37.592Z,10280.00
2022-09-20T11:55:36.582Z,10216.00
2022-09-20T11:56:36.597Z,11444.00
2022-09-20T11:57:36.546Z,11552.00
2022-09-20T11:58:37.553Z,11764.00
2022-09-20T11:59:36.537Z,11972.00
2022-09-20T12:00:36.535Z,12188.00
2022-09-20T12:01:36.708Z,12564.00
2022-09-20T12:02:36.635Z,13068.00
2022-09-20T12:03:36.608Z,13540.00
2022-09-20T12:04:36.940Z,13884.00
2022-09-20T12:05:36.486Z,14332.00
2022-09-20T12:06:36.489Z,14804.00
2022-09-20T12:07:36.467Z,15232.00
2022-09-20T12:08:36.454Z,14912.00
2022-09-20T12:09:36.441Z,14096.00
2022-09-20T12:10:36.436Z,13844.00
2022-09-20T12:11:36.441Z,13936.00
2022-09-20T12:12:36.419Z,14020.00
2022-09-20T12:13:36.399Z,12852.00
2022-09-20T12:14:36.388Z,13540.00
2022-09-20T12:15:36.423Z,14320.00
2022-09-20T12:16:36.483Z,13008.00
2022-09-20T12:17:36.352Z,12508.00
2022-09-20T12:18:36.348Z,12484.00
2022-09-20T12:19:36.345Z,12420.00
2022-09-20T12:20:36.343Z,12612.00
2022-09-20T12:21:36.352Z,13268.00
2022-09-20T12:22:36.319Z,13432.00
2022-09-20T12:23:36.300Z,11928.00
2022-09-20T12:24:38.513Z,11788.00
2022-09-20T12:25:36.282Z,11836.00
2022-09-20T12:26:36.294Z,11924.00
2022-09-20T12:27:36.266Z,11796.00
2022-09-20T12:28:36.258Z,11408.00
2022-09-20T12:29:36.250Z,11116.00
2022-09-20T12:30:36.239Z,10728.00
2022-09-20T12:31:36.293Z,10328.00
2022-09-20T12:32:36.230Z,10020.00